Time;durP1;ratioP1;P1;durP2;ratioP2;P2;SDS_P1;SDS_P2;PMS_P1;PMS_P2;Temp;Humidity;BMP_temperature;BMP_pressure;BME280_temperature;BME280_humidity;BME280_pressure;Samples;Min_cycle;Max_cycle;Signal;HPM_P1;HPM_P2
2021/08/28 00:01:39;;;;;;;1.88;1.08;;;;;;;14.11;73.87;101188.97;5043866;28;20363;-76
2021/08/28 00:04:04;;;;;;;1.90;0.80;;;;;;;14.04;73.89;101185.56;5043702;28;20045;-75
2021/08/28 00:06:29;;;;;;;3.33;1.40;;;;;;;14.03;74.08;101185.59;5043846;28;20040;-75
2021/08/28 00:08:55;;;;;;;2.50;1.13;;;;;;;14.03;74.31;101180.34;5043532;28;20036;-77
2021/08/28 00:11:21;;;;;;;2.03;1.20;;;;;;;13.98;74.38;101181.28;5043643;28;20496;-74
2021/08/28 00:13:46;;;;;;;2.03;1.30;;;;;;;13.97;74.44;101170.84;5042897;28;20064;-73
2021/08/28 00:16:12;;;;;;;5.32;0.98;;;;;;;13.99;74.39;101182.16;5043664;28;20025;-75
2021/08/28 00:18:37;;;;;;;1.45;1.02;;;;;;;13.95;74.51;101183.06;5043367;28;20025;-76
2021/08/28 00:21:03;;;;;;;4.43;1.35;;;;;;;13.97;74.55;101183.91;5042455;28;20045;-76
2021/08/28 00:23:28;;;;;;;2.38;1.10;;;;;;;13.92;74.75;101181.34;5043455;28;20029;-75
2021/08/28 00:25:54;;;;;;;1.88;1.00;;;;;;;13.91;74.83;101176.16;5043327;28;20454;-74
2021/08/28 00:28:21;;;;;;;1.98;1.27;;;;;;;13.91;74.93;101170.94;5043500;28;20056;-73
2021/08/28 00:30:46;;;;;;;2.80;1.20;;;;;;;13.86;75.13;101190.13;5043135;28;20025;-74
2021/08/28 00:33:14;;;;;;;2.85;1.33;;;;;;;13.85;75.40;101184.91;5043124;28;20055;-75
2021/08/28 00:35:40;;;;;;;3.35;1.33;;;;;;;13.86;75.17;101182.28;5043355;28;20105;-75
2021/08/28 00:38:06;;;;;;;4.25;1.35;;;;;;;13.87;75.13;101185.75;5043425;28;20497;-74
2021/08/28 00:40:33;;;;;;;2.28;1.65;;;;;;;13.88;75.13;101162.22;5043114;28;20052;-74
2021/08/28 00:42:58;;;;;;;2.45;1.50;;;;;;;13.85;75.30;101172.72;5043144;28;20026;-74
2021/08/28 00:45:32;;;;;;;3.58;1.15;;;;;;;13.86;75.32;101189.25;5043254;28;20048;-75
2021/08/28 00:48:11;;;;;;;2.30;1.30;;;;;;;13.86;75.23;101184.91;5043271;28;20449;-75
2021/08/28 00:50:39;;;;;;;4.32;1.42;;;;;;;13.91;75.15;101192.69;5043029;28;20049;-75
2021/08/28 00:53:12;;;;;;;1.80;1.40;;;;;;;13.83;75.42;101187.53;5043411;28;20017;-74
2021/08/28 00:55:40;;;;;;;3.50;1.98;;;;;;;13.88;75.35;101197.94;5043078;28;20471;-75
2021/08/28 00:58:06;;;;;;;2.00;1.38;;;;;;;13.82;75.42;101196.22;5043212;28;20085;-74
2021/08/28 01:00:41;;;;;;;3.35;1.50;;;;;;;13.84;75.42;101199.69;5042636;28;20037;-75
2021/08/28 01:03:08;;;;;;;2.50;1.42;;;;;;;13.84;75.15;101191.00;5042997;28;20025;-75
2021/08/28 01:05:48;;;;;;;2.75;1.83;;;;;;;13.87;75.14;101190.97;5042715;28;20021;-74
2021/08/28 01:08:25;;;;;;;3.65;1.80;;;;;;;13.92;75.12;101209.19;5043089;28;20034;-75
2021/08/28 01:11:09;;;;;;;2.15;1.30;;;;;;;13.88;75.10;101206.59;5042463;28;20046;-75
2021/08/28 01:13:37;;;;;;;2.03;1.38;;;;;;;13.91;75.00;101202.25;5041403;28;20049;-75
2021/08/28 01:16:04;;;;;;;2.15;1.50;;;;;;;13.91;75.01;101197.03;5043010;28;20032;-75
2021/08/28 01:18:30;;;;;;;2.03;1.00;;;;;;;13.92;74.95;101203.97;5042680;28;20559;-75
2021/08/28 01:21:22;;;;;;;2.20;1.63;;;;;;;13.95;74.90;101204.81;5042836;28;20049;-76
2021/08/28 01:23:49;;;;;;;3.50;1.30;;;;;;;13.98;74.65;101202.16;5044311;28;20025;-74
2021/08/28 01:26:19;;;;;;;2.15;1.52;;;;;;;13.94;74.92;101202.22;5046875;28;20029;-74
2021/08/28 01:28:50;;;;;;;1.90;1.10;;;;;;;13.92;74.83;101197.00;5046765;28;20044;-74
2021/08/28 01:31:16;;;;;;;2.65;1.52;;;;;;;13.95;74.73;101206.53;5046712;28;20037;-74
2021/08/28 01:33:43;;;;;;;3.13;1.60;;;;;;;13.89;74.82;101204.88;5046429;28;20097;-74
2021/08/28 01:36:13;;;;;;;2.70;1.40;;;;;;;13.94;74.90;101207.44;5046547;28;20030;-74
2021/08/28 01:38:40;;;;;;;2.08;1.50;;;;;;;13.96;74.60;101206.53;5046486;28;20462;-74
2021/08/28 01:41:06;;;;;;;2.78;1.67;;;;;;;13.97;74.69;101213.50;5046115;28;20052;-74
2021/08/28 01:43:32;;;;;;;2.40;1.48;;;;;;;13.96;74.54;101210.91;5046567;28;20021;-75
2021/08/28 01:45:58;;;;;;;2.78;1.23;;;;;;;13.96;74.63;101211.75;5046513;28;20109;-74
2021/08/28 01:48:23;;;;;;;4.43;1.60;;;;;;;13.97;74.59;101223.06;5046412;28;20030;-75
2021/08/28 01:50:51;;;;;;;2.35;1.30;;;;;;;13.98;74.45;101216.97;5046049;28;20033;-74
2021/08/28 01:53:19;;;;;;;3.53;1.60;;;;;;;13.98;74.35;101211.72;5046663;28;20030;-73
2021/08/28 01:55:44;;;;;;;3.70;1.40;;;;;;;13.94;74.49;101216.16;5046533;28;20025;-74
2021/08/28 01:58:12;;;;;;;2.35;1.50;;;;;;;13.93;74.66;101214.38;5046159;28;20083;-74
2021/08/28 02:00:37;;;;;;;2.35;1.52;;;;;;;13.95;74.36;101220.47;5045948;28;20036;-74
2021/08/28 02:03:03;;;;;;;3.67;1.60;;;;;;;13.97;74.39;101216.13;5045940;28;20026;-75
2021/08/28 02:05:32;;;;;;;2.20;1.40;;;;;;;13.97;74.31;101213.50;5045654;28;20022;-74
2021/08/28 02:08:06;;;;;;;2.55;1.60;;;;;;;13.96;74.37;101196.09;5046122;28;20052;-74
2021/08/28 02:10:38;;;;;;;2.72;1.52;;;;;;;13.97;74.23;101203.06;5045755;28;20073;-75
2021/08/28 02:13:09;;;;;;;;;;;;;;;14.03;74.01;101193.41;5046543;28;20036;-75
2021/08/28 02:15:50;;;;;;;3.08;1.70;;;;;;;13.94;74.13;101194.38;5045550;28;19972;-74
2021/08/28 02:18:32;;;;;;;4.03;2.50;;;;;;;13.95;74.41;101189.16;5045795;28;20025;-75
2021/08/28 02:21:00;;;;;;;4.28;2.08;;;;;;;13.91;74.37;101178.75;5045422;28;20068;-74
2021/08/28 02:23:33;;;;;;;4.97;2.50;;;;;;;13.94;74.32;101182.22;5045796;28;20021;-75
2021/08/28 02:26:08;;;;;;;3.88;1.70;;;;;;;13.95;74.26;101172.63;5045399;28;20032;-74
2021/08/28 02:28:46;;;;;;;2.95;1.73;;;;;;;13.95;74.45;101173.50;5045554;28;20045;-74
2021/08/28 02:31:12;;;;;;;2.72;2.08;;;;;;;13.96;74.38;101169.13;5045223;28;20426;-74
2021/08/28 02:33:40;;;;;;;3.50;2.10;;;;;;;13.95;74.31;101170.88;5045293;28;20025;-74
2021/08/28 02:36:07;;;;;;;3.30;2.17;;;;;;;13.91;74.27;101163.09;5044429;28;20057;-73
2021/08/28 02:38:34;;;;;;;3.92;1.88;;;;;;;13.93;74.36;101171.78;5045659;28;20028;-76
2021/08/28 02:41:01;;;;;;;4.70;2.60;;;;;;;13.92;74.38;101170.03;5045238;28;20037;-76
2021/08/28 02:43:29;;;;;;;3.90;2.22;;;;;;;13.92;74.53;101183.09;5045658;28;20105;-75
2021/08/28 02:45:55;;;;;;;4.05;2.38;;;;;;;13.95;74.57;101181.31;5045217;28;20041;-76
2021/08/28 02:48:24;;;;;;;3.65;2.58;;;;;;;13.95;74.51;101176.09;5045186;28;20214;-75
2021/08/28 02:50:52;;;;;;;4.95;2.33;;;;;;;13.95;74.43;101183.94;5043782;28;20068;-76
2021/08/28 02:53:20;;;;;;;3.80;1.92;;;;;;;13.94;74.63;101182.22;5045331;28;20044;-77
2021/08/28 02:55:47;;;;;;;3.47;2.45;;;;;;;13.92;74.61;101172.66;5045063;28;20028;-76
2021/08/28 02:58:13;;;;;;;3.58;2.30;;;;;;;13.91;74.80;101173.53;5045079;28;20036;-76
2021/08/28 03:00:42;;;;;;;5.63;2.50;;;;;;;13.92;74.49;101167.41;5045193;28;20021;-75
2021/08/28 03:03:08;;;;;;;4.05;2.75;;;;;;;13.95;74.56;101178.72;5045084;28;20052;-75
2021/08/28 03:05:34;;;;;;;4.38;2.70;;;;;;;13.91;74.58;101170.94;5044810;28;20017;-75
2021/08/28 03:08:00;;;;;;;4.68;2.63;;;;;;;13.85;74.67;101164.88;5044873;28;20049;-76
2021/08/28 03:10:26;;;;;;;3.85;2.50;;;;;;;13.92;74.80;101177.88;5044460;28;20055;-75
2021/08/28 03:12:52;;;;;;;4.53;2.80;;;;;;;13.92;74.71;101170.03;5044825;28;20021;-76
2021/08/28 03:15:17;;;;;;;6.18;2.95;;;;;;;13.93;74.67;101171.78;5043090;28;20028;-77
2021/08/28 03:17:45;;;;;;;4.80;2.85;;;;;;;13.94;74.62;101166.53;5044811;28;20044;-76
2021/08/28 03:20:13;;;;;;;4.55;3.30;;;;;;;13.96;74.79;101174.34;5044886;28;20110;-75
2021/08/28 03:22:40;;;;;;;6.50;3.10;;;;;;;13.94;74.67;101170.88;5044542;28;20517;-75
2021/08/28 03:25:08;;;;;;;5.07;2.92;;;;;;;13.94;74.68;101165.66;5044561;28;20032;-75
2021/08/28 03:27:36;;;;;;;5.60;2.97;;;;;;;13.95;74.68;101170.88;5044537;28;20026;-75
2021/08/28 03:30:11;;;;;;;3.67;3.05;;;;;;;13.95;74.80;101170.88;5044127;28;20036;-75
2021/08/28 03:32:40;;;;;;;6.40;3.47;;;;;;;13.95;74.61;101163.03;5044503;28;20028;-75
2021/08/28 03:35:05;;;;;;;5.97;3.35;;;;;;;13.98;74.70;101169.97;5044298;28;20018;-75
2021/08/28 03:37:33;;;;;;;5.00;3.05;;;;;;;13.92;74.92;101170.91;5044858;28;20457;-76
2021/08/28 03:39:58;;;;;;;5.32;3.40;;;;;;;13.88;74.99;101167.47;5045016;28;20045;-75
2021/08/28 03:42:24;;;;;;;5.70;3.60;;;;;;;13.88;74.90;101166.63;5044680;28;20517;-75
2021/08/28 03:44:49;;;;;;;4.53;3.13;;;;;;;13.87;74.93;101165.75;5042989;28;20018;-75
2021/08/28 03:47:16;;;;;;;4.25;2.83;;;;;;;13.86;75.04;101165.75;5044097;28;20032;-75
2021/08/28 03:49:41;;;;;;;7.75;3.38;;;;;;;13.86;74.68;101163.13;5044537;28;20029;-75
2021/08/28 03:52:07;;;;;;;4.90;3.28;;;;;;;13.81;75.11;101171.03;5044337;28;20021;-76
2021/08/28 03:54:32;;;;;;;5.20;3.33;;;;;;;13.83;75.26;101166.66;5043922;28;20022;-76
2021/08/28 03:56:57;;;;;;;4.72;3.28;;;;;;;13.86;75.13;101160.53;5044150;28;20017;-76
2021/08/28 03:59:23;;;;;;;5.07;3.10;;;;;;;13.83;74.94;101164.03;5043676;28;20018;-75
2021/08/28 04:01:48;;;;;;;5.60;3.15;;;;;;;13.84;75.35;101176.22;5043985;28;20055;-75
2021/08/28 04:04:14;;;;;;;4.95;3.15;;;;;;;13.84;75.06;101170.13;5043373;28;20085;-76
2021/08/28 04:06:39;;;;;;;5.28;3.03;;;;;;;13.83;75.33;101187.53;5043553;28;20029;-75
2021/08/28 04:09:05;;;;;;;4.90;2.80;;;;;;;13.81;75.01;101175.38;5043491;28;20017;-76
2021/08/28 04:11:30;;;;;;;5.45;3.67;;;;;;;13.85;75.14;101177.09;5043468;28;20101;-75
2021/08/28 04:13:55;;;;;;;7.30;3.45;;;;;;;13.83;75.40;101177.09;5043770;28;20124;-75
2021/08/28 04:16:21;;;;;;;6.85;3.75;;;;;;;13.85;75.08;101167.50;5043755;28;20056;-76
2021/08/28 04:18:46;;;;;;;6.22;3.45;;;;;;;13.93;75.15;101172.63;5043622;28;20025;-75
2021/08/28 04:21:12;;;;;;;7.57;3.33;;;;;;;13.89;74.91;101184.00;5043070;28;20025;-75
2021/08/28 04:23:37;;;;;;;5.85;3.33;;;;;;;13.84;75.53;101172.72;5043390;28;20048;-75
2021/08/28 04:26:02;;;;;;;5.95;3.67;;;;;;;13.80;75.29;101189.31;5043294;28;20030;-75
2021/08/28 04:28:28;;;;;;;6.82;3.67;;;;;;;13.79;75.61;101188.44;5043259;28;20054;-74
2021/08/28 04:30:53;;;;;;;6.57;3.83;;;;;;;13.78;75.54;101191.94;5043088;28;20067;-76
2021/08/28 04:33:18;;;;;;;5.88;3.13;;;;;;;13.79;75.50;101195.38;5042728;28;20045;-75
2021/08/28 04:35:44;;;;;;;5.95;3.72;;;;;;;13.77;75.84;101190.19;5043161;28;20459;-76
2021/08/28 04:38:09;;;;;;;7.95;3.40;;;;;;;13.80;75.78;101182.31;5043130;28;20040;-74
2021/08/28 04:40:35;;;;;;;11.13;3.10;;;;;;;13.81;75.54;101183.19;5042963;28;20029;-74
2021/08/28 04:43:00;;;;;;;7.45;3.60;;;;;;;13.80;75.50;101186.69;5042973;28;20032;-74
2021/08/28 04:45:25;;;;;;;5.38;3.25;;;;;;;13.78;75.63;101176.28;5043045;28;20055;-74
2021/08/28 04:47:51;;;;;;;4.60;2.67;;;;;;;13.78;75.76;101185.84;5043306;28;20018;-73
2021/08/28 04:50:17;;;;;;;6.13;3.28;;;;;;;13.72;75.76;101178.94;5041775;28;20098;-75
2021/08/28 04:52:42;;;;;;;7.22;4.18;;;;;;;13.77;75.87;101189.34;5043127;28;20349;-74
2021/08/28 04:55:07;;;;;;;5.45;3.30;;;;;;;13.77;75.84;101184.13;5042855;28;20052;-75
2021/08/28 04:57:33;;;;;;;7.63;3.58;;;;;;;13.80;75.87;101178.88;5043010;28;20049;-74
2021/08/28 04:59:58;;;;;;;5.38;3.72;;;;;;;13.74;75.85;101182.38;5044808;28;20025;-74
2021/08/28 05:02:23;;;;;;;6.57;3.83;;;;;;;13.73;76.13;101178.06;5046979;28;20048;-73
2021/08/28 05:04:49;;;;;;;5.18;3.60;;;;;;;13.77;75.69;101178.91;5057403;28;20031;-74
2021/08/28 05:07:16;;;;;;;6.03;4.07;;;;;;;13.72;76.25;101178.94;5066884;28;20153;-74
2021/08/28 05:09:41;;;;;;;6.43;4.03;;;;;;;13.80;75.83;101173.66;5067168;28;20032;-74
2021/08/28 05:12:06;;;;;;;6.25;3.83;;;;;;;13.76;76.09;101178.03;5066776;28;20049;-75
2021/08/28 05:14:37;;;;;;;9.50;4.68;;;;;;;13.73;75.94;101170.22;5066725;28;20036;-76
2021/08/28 05:17:03;;;;;;;9.25;4.72;;;;;;;13.74;76.26;101174.56;5066925;28;20072;-76
2021/08/28 05:19:29;;;;;;;6.47;4.50;;;;;;;13.75;76.04;101176.31;5066724;28;20032;-75
2021/08/28 05:21:54;;;;;;;8.18;3.92;;;;;;;13.79;75.91;101172.78;5066889;28;20025;-75
2021/08/28 05:24:19;;;;;;;6.38;3.88;;;;;;;13.81;75.74;101175.38;5065345;28;20043;-75
2021/08/28 05:26:45;;;;;;;6.43;3.53;;;;;;;13.88;75.67;101177.91;5066676;28;20082;-74
2021/08/28 05:29:10;;;;;;;9.63;4.93;;;;;;;13.80;75.94;101184.94;5066481;28;20031;-76
2021/08/28 05:31:35;;;;;;;9.07;4.22;;;;;;;13.85;75.68;101177.94;5066597;28;20029;-75
2021/08/28 05:34:01;;;;;;;6.78;3.40;;;;;;;13.78;75.91;101176.28;5066802;28;20074;-76
2021/08/28 05:36:26;;;;;;;7.88;4.70;;;;;;;13.75;76.06;101169.31;5066803;28;20032;-76
2021/08/28 05:38:53;;;;;;;7.28;4.85;;;;;;;13.79;76.03;101178.00;5066667;28;20033;-75
2021/08/28 05:41:18;;;;;;;6.47;3.40;;;;;;;13.77;76.14;101164.09;5066141;28;20017;-76
2021/08/28 05:43:43;;;;;;;9.05;5.57;;;;;;;13.76;76.04;101164.97;5066547;28;20040;-75
2021/08/28 05:46:09;;;;;;;7.45;4.40;;;;;;;13.81;76.28;101164.91;5066409;28;20025;-74
2021/08/28 05:48:34;;;;;;;7.60;4.63;;;;;;;13.91;75.92;101170.94;5066706;28;20028;-74
2021/08/28 05:51:00;;;;;;;6.95;4.03;;;;;;;13.94;75.86;101179.59;5066423;28;20029;-76
2021/08/28 05:53:25;;;;;;;6.78;4.50;;;;;;;13.97;75.96;101161.28;5066378;28;20385;-76
2021/08/28 05:55:50;;;;;;;7.00;4.38;;;;;;;14.01;75.36;101162.09;5066233;28;20021;-75
2021/08/28 05:58:16;;;;;;;6.22;4.22;;;;;;;14.12;75.25;101155.03;5066368;28;20029;-76
2021/08/28 06:00:41;;;;;;;7.35;4.40;;;;;;;14.12;75.33;101162.84;5066029;28;20029;-74
2021/08/28 06:03:06;;;;;;;6.57;4.68;;;;;;;14.11;75.30;101155.03;5066058;28;20021;-76
2021/08/28 06:05:32;;;;;;;7.68;3.88;;;;;;;14.13;75.21;101153.28;5065935;28;20017;-76
2021/08/28 06:07:57;;;;;;;9.60;4.80;;;;;;;14.09;74.94;101155.06;5066131;28;20025;-76
2021/08/28 06:10:22;;;;;;;7.70;4.53;;;;;;;14.12;74.92;101155.03;5064474;28;20045;-75
2021/08/28 06:12:48;;;;;;;7.78;5.10;;;;;;;14.11;75.03;101155.91;5065925;28;20056;-76
2021/08/28 06:15:13;;;;;;;6.07;3.92;;;;;;;14.08;74.77;101142.03;5065388;28;20021;-77
2021/08/28 06:17:38;;;;;;;9.00;5.22;;;;;;;14.12;74.64;101148.97;5065858;28;20025;-75
2021/08/28 06:20:05;;;;;;;7.32;4.15;;;;;;;14.11;74.91;101140.25;5065571;28;20031;-74
2021/08/28 06:22:30;;;;;;;6.57;4.18;;;;;;;14.19;74.70;101148.00;5065860;28;20078;-76
2021/08/28 06:24:55;;;;;;;9.70;4.55;;;;;;;14.22;74.39;101131.41;5064331;28;20017;-76
2021/08/28 06:27:21;;;;;;;6.85;4.15;;;;;;;14.24;74.40;101137.50;5065500;28;20090;-75
2021/08/28 06:29:46;;;;;;;9.73;4.38;;;;;;;14.21;74.06;101134.91;5065410;28;20172;-75
2021/08/28 06:32:11;;;;;;;7.20;5.00;;;;;;;14.26;74.03;101133.13;5065617;28;20029;-75
2021/08/28 06:34:37;;;;;;;10.00;4.43;;;;;;;14.25;74.21;101141.81;5065202;28;20049;-75
2021/08/28 06:37:02;;;;;;;9.05;4.43;;;;;;;14.26;73.90;101133.13;5065464;28;20475;-74
2021/08/28 06:39:28;;;;;;;7.22;4.38;;;;;;;14.25;73.70;101137.47;5065226;28;20025;-68
2021/08/28 06:41:53;;;;;;;7.07;3.92;;;;;;;14.29;73.78;101138.31;5065372;28;20021;-69
2021/08/28 06:44:19;;;;;;;9.70;4.57;;;;;;;14.31;73.61;101133.94;5065329;28;20017;-76
2021/08/28 06:46:44;;;;;;;6.13;3.90;;;;;;;14.27;73.48;101124.38;5065621;28;20052;-78
2021/08/28 06:49:10;;;;;;;6.95;3.10;;;;;;;14.30;73.09;101113.03;5065655;28;20029;-75
2021/08/28 06:51:35;;;;;;;6.57;3.47;;;;;;;14.30;73.03;101133.94;5065148;28;20060;-75
2021/08/28 06:54:01;;;;;;;4.97;3.75;;;;;;;14.32;72.75;101129.56;5065188;28;20021;-75
2021/08/28 06:56:26;;;;;;;5.95;3.63;;;;;;;14.27;73.20;101131.34;5063983;28;20016;-76
2021/08/28 06:58:55;;;;;;;6.60;3.60;;;;;;;14.28;72.93;101133.09;5065241;28;20039;-75
2021/08/28 07:01:21;;;;;;;6.18;3.40;;;;;;;14.28;73.00;101128.72;5064998;28;20028;-74
2021/08/28 07:03:47;;;;;;;5.78;3.63;;;;;;;14.44;72.24;101149.44;5065386;28;20052;-76
2021/08/28 07:06:12;;;;;;;4.90;3.00;;;;;;;14.43;72.44;101135.50;5065185;28;20025;-76
2021/08/28 07:08:37;;;;;;;5.90;3.80;;;;;;;14.42;72.47;101130.31;5065317;28;20089;-75
2021/08/28 07:11:04;;;;;;;5.07;2.72;;;;;;;14.58;72.09;101131.84;5063116;28;20049;-74
2021/08/28 07:13:29;;;;;;;4.93;2.95;;;;;;;14.68;71.58;101143.00;5064560;28;20025;-76
2021/08/28 07:15:54;;;;;;;5.65;3.17;;;;;;;14.69;71.29;101133.44;5065121;28;20050;-74
2021/08/28 07:18:20;;;;;;;5.85;3.00;;;;;;;14.72;71.46;101131.66;5064952;28;20024;-77
2021/08/28 07:20:45;;;;;;;4.93;2.83;;;;;;;14.81;71.10;101135.06;5062914;28;20021;-74
2021/08/28 07:23:11;;;;;;;7.25;3.00;;;;;;;14.96;70.56;101132.22;5063074;28;20024;-74
2021/08/28 07:25:37;;;;;;;6.97;3.22;;;;;;;14.97;70.07;101131.31;5064928;28;20076;-75
2021/08/28 07:28:11;;;;;;;4.72;2.70;;;;;;;15.04;69.79;101139.94;5063293;28;20025;-75
2021/08/28 07:30:37;;;;;;;4.22;2.25;;;;;;;15.06;69.60;101143.41;5064581;28;20025;-75
2021/08/28 07:33:03;;;;;;;10.00;3.00;;;;;;;15.09;69.33;101132.00;5064546;28;20104;-76
2021/08/28 07:35:29;;;;;;;5.07;2.88;;;;;;;15.08;68.99;101128.53;5063943;28;20091;-73
2021/08/28 07:37:55;;;;;;;6.15;2.78;;;;;;;15.18;69.09;101139.72;5064379;28;20021;-75
2021/08/28 07:40:23;;;;;;;5.38;3.15;;;;;;;15.26;68.98;101134.34;5064460;28;20152;-73
2021/08/28 07:42:53;;;;;;;7.97;3.03;;;;;;;15.45;68.66;101137.53;5064350;28;20016;-72
2021/08/28 07:45:18;;;;;;;6.43;2.70;;;;;;;15.67;68.19;101125.81;5064580;28;20028;-74
2021/08/28 07:47:44;;;;;;;5.57;3.25;;;;;;;15.95;66.73;101133.16;5064094;28;20024;-74
2021/08/28 07:50:10;;;;;;;5.35;2.58;;;;;;;15.97;66.69;101137.47;5063851;28;20025;-73
2021/08/28 07:52:35;;;;;;;4.38;2.80;;;;;;;15.95;65.88;101134.03;5063967;28;20025;-73
2021/08/28 07:55:01;;;;;;;3.30;1.80;;;;;;;15.83;65.04;101136.88;5062544;28;20053;-72
2021/08/28 07:57:26;;;;;;;3.72;2.45;;;;;;;15.74;65.68;101140.50;5064051;28;20021;-74
2021/08/28 07:59:52;;;;;;;3.67;2.10;;;;;;;15.84;65.83;101129.00;5062062;28;20029;-72
2021/08/28 08:02:17;;;;;;;5.03;2.38;;;;;;;15.94;65.63;101139.28;5063944;28;20021;-72
2021/08/28 08:04:42;;;;;;;4.50;2.58;;;;;;;15.96;65.04;101138.34;5063759;28;20275;-72
2021/08/28 08:07:08;;;;;;;3.58;1.90;;;;;;;15.89;64.67;101107.97;5063699;28;20017;-69
2021/08/28 08:09:33;;;;;;;6.05;2.50;;;;;;;15.94;64.92;101126.19;5063565;28;20025;-72
2021/08/28 08:11:59;;;;;;;4.45;2.45;;;;;;;15.98;65.09;101126.13;5063471;28;20079;-73
2021/08/28 08:14:24;;;;;;;4.25;2.53;;;;;;;16.06;65.31;101115.50;5062189;28;20397;-73
2021/08/28 08:16:49;;;;;;;5.10;1.92;;;;;;;16.09;64.92;101114.56;5062154;28;20032;-74
2021/08/28 08:19:15;;;;;;;3.75;2.17;;;;;;;16.17;64.49;101114.41;5063710;28;20029;-72
2021/08/28 08:21:40;;;;;;;5.53;2.28;;;;;;;16.23;63.86;101124.75;5063487;28;20025;-64
2021/08/28 08:24:05;;;;;;;3.30;2.28;;;;;;;16.22;63.75;101113.44;5063486;28;20044;-67
2021/08/28 08:26:31;;;;;;;9.07;2.47;;;;;;;16.29;63.82;101122.03;5063396;28;20473;-69
2021/08/28 08:28:58;;;;;;;3.33;2.30;;;;;;;16.37;63.73;101123.63;5063446;28;20496;-74
2021/08/28 08:31:24;;;;;;;3.60;2.00;;;;;;;16.51;62.97;101123.31;5063334;28;20021;-74
2021/08/28 08:33:49;;;;;;;5.72;2.60;;;;;;;16.46;62.80;101129.53;5062539;28;20237;-77
2021/08/28 08:36:15;;;;;;;4.05;2.70;;;;;;;16.44;62.82;101122.59;5063333;28;20017;-74
2021/08/28 08:38:40;;;;;;;3.42;2.30;;;;;;;16.44;62.95;101115.59;5063386;28;20059;-76
2021/08/28 08:41:09;;;;;;;5.15;2.75;;;;;;;16.47;63.00;101119.88;5063229;28;20039;-74
2021/08/28 08:43:35;;;;;;;4.03;2.10;;;;;;;16.55;62.90;101123.22;5061977;28;20047;-74
2021/08/28 08:46:00;;;;;;;3.97;2.38;;;;;;;16.47;62.36;101125.13;5063375;28;20021;-75
2021/08/28 08:48:26;;;;;;;6.70;2.25;;;;;;;16.39;62.17;101120.06;5063162;28;20036;-76
2021/08/28 08:50:52;;;;;;;4.00;2.33;;;;;;;16.33;62.40;101126.31;5063240;28;20509;-75
2021/08/28 08:53:24;;;;;;;4.05;2.55;;;;;;;16.29;63.21;101129.03;5063405;28;20055;-76
2021/08/28 08:55:52;;;;;;;3.50;2.10;;;;;;;16.33;62.60;101131.56;5062940;28;20035;-75
2021/08/28 08:58:21;;;;;;;3.05;1.95;;;;;;;16.26;62.15;101137.81;5063416;28;20017;-75
2021/08/28 09:00:47;;;;;;;5.80;2.03;;;;;;;16.16;62.02;101149.38;5063115;28;20513;-74
2021/08/28 09:03:12;;;;;;;4.90;2.15;;;;;;;15.96;62.88;101140.97;5062895;28;20040;-73
2021/08/28 09:05:38;;;;;;;3.65;2.30;;;;;;;16.04;62.55;101121.69;5062940;28;20025;-75
2021/08/28 09:08:04;;;;;;;2.67;1.90;;;;;;;15.97;62.98;101131.38;5063097;28;20029;-75
2021/08/28 09:10:32;;;;;;;6.35;2.10;;;;;;;16.22;61.98;101116.06;5063088;28;20048;-74
2021/08/28 09:13:12;;;;;;;4.00;1.88;;;;;;;16.29;62.25;101122.03;5062758;28;20025;-74
2021/08/28 09:15:57;;;;;;;4.90;2.55;;;;;;;16.54;61.84;101124.13;5062965;28;20048;-74
2021/08/28 09:18:24;;;;;;;4.25;2.00;;;;;;;16.63;60.95;101120.41;5063302;28;20075;-72
2021/08/28 09:20:50;;;;;;;7.00;2.15;;;;;;;16.66;60.92;101124.75;5062865;28;20025;-75
2021/08/28 09:23:18;;;;;;;4.53;2.25;;;;;;;16.52;61.21;101120.66;5061723;28;20021;-75
2021/08/28 09:25:48;;;;;;;3.70;2.17;;;;;;;16.45;61.52;101124.31;5062921;28;20021;-75
2021/08/28 09:28:14;;;;;;;5.07;2.00;;;;;;;16.40;60.93;101123.56;5063013;28;20048;-75
2021/08/28 09:30:45;;;;;;;4.82;2.65;;;;;;;16.25;61.32;101124.72;5062969;28;20028;-75
2021/08/28 09:33:16;;;;;;;5.07;2.20;;;;;;;16.14;61.48;101119.72;5062908;28;20059;-73
2021/08/28 09:35:46;;;;;;;3.83;1.70;;;;;;;16.16;61.41;101124.03;5063012;28;20029;-75
2021/08/28 09:38:14;;;;;;;4.05;2.17;;;;;;;16.06;61.63;101128.59;5062717;28;20471;-75
2021/08/28 09:40:43;;;;;;;5.32;2.25;;;;;;;15.97;62.36;101126.13;5062730;28;20037;-75
2021/08/28 09:43:12;;;;;;;5.00;2.67;;;;;;;16.02;62.73;101120.84;5063052;28;20049;-74
2021/08/28 09:45:38;;;;;;;3.45;2.30;;;;;;;16.14;62.04;101117.09;5065393;28;20576;-75
2021/08/28 09:48:11;;;;;;;3.85;2.10;;;;;;;16.10;62.53;101122.41;5066462;28;20085;-75
2021/08/28 09:50:38;;;;;;;4.93;2.30;;;;;;;16.14;62.11;101127.56;5066541;28;20024;-76
2021/08/28 09:53:07;;;;;;;1.92;1.50;;;;;;;16.17;61.90;101112.66;5066411;28;20045;-74
2021/08/28 09:55:34;;;;;;;3.78;1.85;;;;;;;16.13;61.67;101120.63;5066500;28;20036;-74
2021/08/28 09:58:00;;;;;;;2.63;1.90;;;;;;;16.03;61.96;101120.81;5066419;28;20033;-76
2021/08/28 10:00:28;;;;;;;2.65;1.70;;;;;;;16.11;61.63;101112.78;5066264;28;20109;-75
2021/08/28 10:02:58;;;;;;;4.22;1.90;;;;;;;15.97;61.95;101116.53;5066406;28;20025;-76
2021/08/28 10:05:27;;;;;;;2.17;1.60;;;;;;;15.97;61.97;101113.03;5066446;28;20021;-76
2021/08/28 10:07:58;;;;;;;4.00;2.00;;;;;;;15.91;61.72;101105.31;5066021;28;20037;-75
2021/08/28 10:10:25;;;;;;;3.60;2.17;;;;;;;15.83;62.25;101098.44;5065899;28;20049;-75
2021/08/28 10:12:51;;;;;;;4.55;1.90;;;;;;;15.96;62.20;101106.06;5066124;28;20048;-74
2021/08/28 10:15:19;;;;;;;4.45;2.10;;;;;;;16.02;61.77;101105.13;5065816;28;20024;-74
2021/08/28 10:17:45;;;;;;;2.47;1.80;;;;;;;15.91;61.92;101103.53;5065889;28;20032;-75
2021/08/28 10:20:11;;;;;;;3.30;1.98;;;;;;;15.79;62.10;101082.84;5065722;28;20134;-75
2021/08/28 10:22:40;;;;;;;3.90;1.83;;;;;;;15.77;62.37;101082.88;5066056;28;20044;-74
2021/08/28 10:25:09;;;;;;;5.82;2.10;;;;;;;15.74;62.23;101088.16;5065993;28;20021;-75
2021/08/28 10:27:37;;;;;;;3.47;1.90;;;;;;;15.85;62.47;101101.91;5065776;28;20075;-75
2021/08/28 10:30:03;;;;;;;5.50;2.47;;;;;;;15.81;62.32;101091.53;5065816;28;20501;-77
2021/08/28 10:32:29;;;;;;;3.03;1.80;;;;;;;15.67;62.48;101091.81;5065732;28;20036;-75
2021/08/28 10:34:54;;;;;;;3.58;1.90;;;;;;;15.68;63.05;101085.66;5065774;28;20017;-74
2021/08/28 10:37:20;;;;;;;3.65;2.10;;;;;;;15.81;62.63;101084.53;5065773;28;20027;-76
2021/08/28 10:39:50;;;;;;;2.20;1.50;;;;;;;15.88;62.20;101090.50;5065571;28;20043;-77
2021/08/28 10:42:16;;;;;;;3.33;1.95;;;;;;;15.81;61.89;101079.31;5065745;28;20060;-74
2021/08/28 10:44:42;;;;;;;3.92;2.72;;;;;;;15.79;62.62;101090.69;5065841;28;20442;-73
2021/08/28 10:47:14;;;;;;;2.78;1.92;;;;;;;15.81;62.05;101087.16;5065642;28;20044;-74
2021/08/28 10:49:45;;;;;;;2.70;1.67;;;;;;;15.89;61.70;101096.63;5065529;28;20021;-75
2021/08/28 10:52:23;;;;;;;2.58;1.92;;;;;;;15.76;61.99;101085.50;5065335;28;20032;-74
2021/08/28 10:55:04;;;;;;;3.10;2.10;;;;;;;15.68;62.06;101096.13;5065367;28;20067;-74
2021/08/28 10:57:29;;;;;;;5.43;2.10;;;;;;;15.71;62.24;101091.72;5064513;28;20031;-73
2021/08/28 11:00:00;;;;;;;4.05;2.08;;;;;;;15.77;62.09;101088.09;5064060;28;20021;-74
2021/08/28 11:02:48;;;;;;;2.30;1.77;;;;;;;15.84;62.09;101086.22;5065120;28;20366;-75
2021/08/28 11:05:19;;;;;;;4.40;2.10;;;;;;;15.81;62.19;101083.69;5069145;28;20028;-75
2021/08/28 11:07:44;;;;;;;4.80;2.95;;;;;;;15.87;62.71;101094.03;5063821;28;20017;-74
2021/08/28 11:10:10;;;;;;;4.30;2.20;;;;;;;15.99;62.20;101087.69;5065088;28;20074;-74
2021/08/28 11:12:50;;;;;;;4.75;2.55;;;;;;;16.06;61.78;101089.31;5064951;28;20040;-72
2021/08/28 11:15:24;;;;;;;4.22;2.22;;;;;;;16.05;61.79;101091.97;5065039;28;20077;-74
2021/08/28 11:18:03;;;;;;;6.13;2.80;;;;;;;16.05;61.80;101098.06;5065023;28;20031;-75
2021/08/28 11:20:42;;;;;;;3.97;2.95;;;;;;;16.13;61.08;101090.06;5064721;28;20453;-75
2021/08/28 11:23:13;;;;;;;2.75;1.73;;;;;;;16.17;61.30;101085.59;5064937;28;20025;-75
2021/08/28 11:25:41;;;;;;;3.80;2.58;;;;;;;16.27;61.08;101121.19;5064721;28;20025;-74